Florida, New York
Current Conditions -  °F | °C
As of 9:54 AM on Monday 24 Nov 2014 (Local Time) from KMGJ Reporting Station
Overcast Overcast  
Wind Chill: 66°   Ceiling: 3000
Heat Index: 66°   Visibility: 10mi
Dew Point: 59°   Wind: 12mph
Humidity: 78%   Direction: 210°SSW
Pressure: 29.62"   Gusts: 18mph
Location:  41.33°N, 74.36°W
Report Text: KMGJ 241454Z AUTO 21010G16KT 10SM BKN030 OVC035 19/15 A2962 RMK AO2 RAE17B23E45 SLP030 P0001 60002 T01890150 50000 TSNO
Loading
Personal Weather Stations






























Interactive Weather Map New forecast layout! Learn more

10-Day Weather Forecast

Advertisements
Track Severe Weather on mobile